createdAt,value
2018-08-13T00:01:35.864Z,0.80
2018-08-13T00:04:06.054Z,1.20
2018-08-13T00:06:36.260Z,1.20
2018-08-13T00:09:07.516Z,1.20
2018-08-13T00:11:37.711Z,1.17
2018-08-13T00:14:07.884Z,0.90
2018-08-13T00:16:38.040Z,0.90
2018-08-13T00:19:08.177Z,0.97
2018-08-13T00:21:38.224Z,0.97
2018-08-13T00:24:08.408Z,0.80
2018-08-13T00:26:38.528Z,0.80
2018-08-13T00:29:08.667Z,0.60
2018-08-13T00:31:38.749Z,0.90
2018-08-13T00:34:08.816Z,0.90
2018-08-13T00:36:39.001Z,1.00
2018-08-13T00:39:11.276Z,0.80
2018-08-13T00:41:41.447Z,1.10
2018-08-13T00:44:11.539Z,0.80
2018-08-13T00:46:41.980Z,1.10
2018-08-13T00:49:12.144Z,1.00
2018-08-13T00:51:42.291Z,1.30
2018-08-13T00:54:12.452Z,1.10
2018-08-13T00:56:42.656Z,0.70
2018-08-13T00:59:12.771Z,1.67
2018-08-13T01:01:42.956Z,1.00
2018-08-13T01:04:13.105Z,1.00
2018-08-13T01:06:43.251Z,1.00
2018-08-13T01:09:13.353Z,1.00
2018-08-13T01:11:43.435Z,1.20
2018-08-13T01:14:13.594Z,1.20
2018-08-13T01:16:43.776Z,1.27
2018-08-13T01:19:13.879Z,1.13
2018-08-13T01:21:44.040Z,1.10
2018-08-13T01:24:14.168Z,1.30
2018-08-13T01:26:44.303Z,0.90
2018-08-13T01:29:14.596Z,0.90
2018-08-13T01:31:44.768Z,1.00
2018-08-13T01:34:14.992Z,1.30
2018-08-13T01:36:45.174Z,1.10
2018-08-13T01:39:15.295Z,1.10
2018-08-13T01:41:45.473Z,1.30
2018-08-13T01:44:15.684Z,1.10
2018-08-13T01:46:45.912Z,1.07
2018-08-13T01:49:16.032Z,1.07
2018-08-13T01:51:46.188Z,1.30
2018-08-13T01:54:16.356Z,1.10
2018-08-13T01:56:46.452Z,0.90
2018-08-13T01:59:16.660Z,1.37
2018-08-13T02:01:46.847Z,1.30
2018-08-13T02:04:17.053Z,1.30
2018-08-13T02:06:47.448Z,1.07
2018-08-13T02:09:17.564Z,1.60
2018-08-13T02:11:47.752Z,1.40
2018-08-13T02:14:17.991Z,1.40
2018-08-13T02:16:48.040Z,1.20
2018-08-13T02:19:18.180Z,1.70
2018-08-13T02:21:48.375Z,1.27
2018-08-13T02:24:18.675Z,1.40
2018-08-13T02:26:48.859Z,1.20
2018-08-13T02:29:19.175Z,1.60
2018-08-13T02:31:49.842Z,1.07
2018-08-13T02:34:20.129Z,1.30
2018-08-13T02:36:50.680Z,1.20
2018-08-13T02:39:20.955Z,1.13
2018-08-13T02:41:51.120Z,1.20
2018-08-13T02:44:21.344Z,1.50
2018-08-13T02:46:51.578Z,1.13
2018-08-13T02:49:21.850Z,1.37
2018-08-13T02:51:52.004Z,1.50
2018-08-13T02:54:22.204Z,1.50
2018-08-13T02:56:52.292Z,1.40
2018-08-13T02:59:22.569Z,1.60
2018-08-13T03:01:52.728Z,1.30
2018-08-13T03:04:22.997Z,1.30
2018-08-13T03:06:53.178Z,1.27
2018-08-13T03:09:23.455Z,1.40
2018-08-13T03:11:53.696Z,1.23
2018-08-13T03:14:23.952Z,1.50
2018-08-13T03:16:54.168Z,1.50
2018-08-13T03:19:24.428Z,1.60
2018-08-13T03:21:54.611Z,1.40
2018-08-13T03:24:25.010Z,1.50
2018-08-13T03:26:55.261Z,1.70
2018-08-13T03:29:25.483Z,1.47
2018-08-13T03:31:55.759Z,1.70
2018-08-13T03:34:26.015Z,1.40
2018-08-13T03:36:56.253Z,1.50
2018-08-13T03:39:26.513Z,1.17
2018-08-13T03:41:56.795Z,1.57
2018-08-13T03:44:26.964Z,1.60
2018-08-13T03:46:57.195Z,1.57
2018-08-13T03:49:27.434Z,1.50
2018-08-13T03:51:57.622Z,1.60
2018-08-13T03:54:27.865Z,1.70
2018-08-13T03:56:58.052Z,1.60
2018-08-13T03:59:28.236Z,1.60
2018-08-13T04:01:58.568Z,1.80
2018-08-13T04:04:28.671Z,1.50
2018-08-13T04:06:58.920Z,1.70
2018-08-13T04:09:29.109Z,1.43
2018-08-13T04:11:59.344Z,1.07
2018-08-13T04:14:29.573Z,1.53
2018-08-13T04:17:02.001Z,1.33
2018-08-13T04:19:33.421Z,1.10
2018-08-13T04:22:03.743Z,1.60
2018-08-13T04:24:34.032Z,1.20
2018-08-13T04:27:04.486Z,1.30
2018-08-13T04:29:34.716Z,1.10
2018-08-13T04:32:05.023Z,1.60
2018-08-13T04:34:35.336Z,1.40
2018-08-13T04:37:05.527Z,1.57
2018-08-13T04:39:35.767Z,1.20
2018-08-13T04:42:06.039Z,1.30
2018-08-13T04:44:36.264Z,1.40
2018-08-13T04:47:06.504Z,1.40
2018-08-13T04:49:36.782Z,1.10
2018-08-13T04:52:06.968Z,1.00
2018-08-13T04:54:37.190Z,1.20
2018-08-13T04:57:07.464Z,1.23
2018-08-13T04:59:37.674Z,1.27
2018-08-13T05:02:07.904Z,1.10
2018-08-13T05:04:38.108Z,1.40
2018-08-13T05:07:08.358Z,1.20
2018-08-13T05:09:38.603Z,1.17
2018-08-13T05:12:08.814Z,1.20
2018-08-13T05:14:38.956Z,1.40
2018-08-13T05:17:09.204Z,1.10
2018-08-13T05:19:39.416Z,1.27
2018-08-13T05:22:09.617Z,1.40
2018-08-13T05:24:39.866Z,1.30
2018-08-13T05:27:10.026Z,1.30
2018-08-13T05:29:40.200Z,1.27
2018-08-13T05:32:10.461Z,1.40
2018-08-13T05:34:40.652Z,1.03
2018-08-13T05:37:10.825Z,1.10
2018-08-13T05:39:40.996Z,1.20
2018-08-13T05:42:11.292Z,1.20
2018-08-13T05:44:41.529Z,0.90
2018-08-13T05:47:11.786Z,1.20
2018-08-13T05:49:42.040Z,0.80
2018-08-13T05:52:12.225Z,1.10
2018-08-13T05:54:42.456Z,1.10
2018-08-13T05:57:12.744Z,0.80
2018-08-13T05:59:43.777Z,1.20
2018-08-13T06:02:14.134Z,0.80
2018-08-13T06:04:44.386Z,0.80
2018-08-13T06:07:14.663Z,0.73
2018-08-13T06:09:44.872Z,1.00
2018-08-13T06:12:15.274Z,1.30
2018-08-13T06:14:45.475Z,0.87
2018-08-13T06:17:15.752Z,0.67
2018-08-13T06:19:45.918Z,0.60
2018-08-13T06:22:16.116Z,0.93
2018-08-13T06:24:46.385Z,0.80
2018-08-13T06:27:16.524Z,1.00
2018-08-13T06:29:46.881Z,0.70
2018-08-13T06:32:17.053Z,0.80
2018-08-13T06:34:47.274Z,1.17
2018-08-13T06:37:17.531Z,0.87
2018-08-13T06:39:47.671Z,0.70
2018-08-13T06:42:17.839Z,0.80
2018-08-13T06:44:48.072Z,0.60
2018-08-13T06:47:18.407Z,0.70
2018-08-13T06:49:48.602Z,0.63
2018-08-13T06:52:18.880Z,0.77
2018-08-13T06:54:49.068Z,0.50
2018-08-13T06:57:19.289Z,0.70
2018-08-13T06:59:49.453Z,0.70
2018-08-13T07:02:19.694Z,0.67
2018-08-13T07:04:49.891Z,0.50
2018-08-13T07:07:20.090Z,0.60
2018-08-13T07:09:50.284Z,0.70
2018-08-13T07:12:20.516Z,0.50
2018-08-13T07:14:50.723Z,0.60
2018-08-13T07:17:20.925Z,0.70
2018-08-13T07:19:51.136Z,0.70
2018-08-13T07:22:21.426Z,0.50
2018-08-13T07:24:51.526Z,0.50
2018-08-13T07:27:21.692Z,0.50
2018-08-13T07:29:51.828Z,0.60
2018-08-13T07:32:22.121Z,0.40
2018-08-13T07:34:52.273Z,0.70
2018-08-13T07:37:22.460Z,0.50
2018-08-13T07:39:52.632Z,0.87
2018-08-13T07:42:22.852Z,0.50
2018-08-13T07:44:53.056Z,0.53
2018-08-13T07:47:23.216Z,0.73
2018-08-13T07:49:53.436Z,0.50
2018-08-13T07:52:23.608Z,0.53
2018-08-13T07:54:54.055Z,0.87
2018-08-13T07:57:24.264Z,0.50
2018-08-13T07:59:54.501Z,0.60
2018-08-13T08:02:24.696Z,0.70
2018-08-13T08:04:54.874Z,0.50
2018-08-13T08:07:25.128Z,0.33
2018-08-13T08:09:55.283Z,0.90
2018-08-13T08:12:25.766Z,0.60
2018-08-13T08:14:56.054Z,0.53
2018-08-13T08:17:26.255Z,0.70
2018-08-13T08:19:56.536Z,0.67
2018-08-13T08:22:26.788Z,0.50
2018-08-13T08:24:56.996Z,0.57
2018-08-13T08:27:27.216Z,0.70
2018-08-13T08:29:57.556Z,0.80
2018-08-13T08:32:27.793Z,0.73
2018-08-13T08:34:58.032Z,0.70
2018-08-13T08:37:28.256Z,0.70
2018-08-13T08:39:58.420Z,0.50
2018-08-13T08:42:28.615Z,0.60
2018-08-13T08:44:58.880Z,0.70
2018-08-13T08:47:29.097Z,0.63
2018-08-13T08:49:59.295Z,0.60
2018-08-13T08:52:29.564Z,0.77
2018-08-13T08:54:59.830Z,0.70
2018-08-13T08:57:30.096Z,0.40
2018-08-13T09:00:00.236Z,0.50
2018-08-13T09:02:30.660Z,0.53
2018-08-13T09:05:00.896Z,0.57
2018-08-13T09:07:31.148Z,0.50
2018-08-13T09:10:01.405Z,0.40
2018-08-13T09:12:31.661Z,0.50
2018-08-13T09:15:01.898Z,0.43
2018-08-13T09:17:43.324Z,0.50
2018-08-13T09:20:24.769Z,0.80
2018-08-13T09:23:06.156Z,0.40
2018-08-13T09:25:47.312Z,0.40
2018-08-13T09:28:28.685Z,0.67
2018-08-13T09:31:09.892Z,0.60
2018-08-13T09:33:51.164Z,0.50
2018-08-13T09:36:21.625Z,0.30
2018-08-13T09:38:51.839Z,0.37
2018-08-13T09:41:22.108Z,0.30
2018-08-13T09:43:52.280Z,0.40
2018-08-13T09:46:22.467Z,0.40
2018-08-13T09:48:52.671Z,0.57
2018-08-13T09:51:22.915Z,0.37
2018-08-13T09:53:53.167Z,0.40
2018-08-13T09:56:23.420Z,0.40
2018-08-13T09:58:53.661Z,0.30
2018-08-13T10:01:23.836Z,0.60
2018-08-13T10:03:54.104Z,0.40
2018-08-13T10:06:24.326Z,0.43
2018-08-13T10:08:54.578Z,0.20
2018-08-13T10:11:24.808Z,0.50
2018-08-13T10:13:55.161Z,0.50
2018-08-13T10:16:25.350Z,0.40
2018-08-13T10:18:55.612Z,0.40
2018-08-13T10:21:25.909Z,0.40
2018-08-13T10:23:56.113Z,0.47
2018-08-13T10:26:26.384Z,0.43
2018-08-13T10:28:56.553Z,0.30
2018-08-13T10:31:26.851Z,0.30
2018-08-13T10:33:57.432Z,0.40
2018-08-13T10:36:27.636Z,0.30
2018-08-13T10:38:57.896Z,0.60
2018-08-13T10:41:28.125Z,0.40
2018-08-13T10:43:58.404Z,0.40
2018-08-13T10:46:28.740Z,0.47
2018-08-13T10:48:59.096Z,0.40
2018-08-13T10:51:29.376Z,0.30
2018-08-13T10:53:59.632Z,0.60
2018-08-13T10:56:30.065Z,0.40
2018-08-13T10:59:00.355Z,0.57
2018-08-13T11:01:30.692Z,0.53
2018-08-13T11:04:00.968Z,0.70
2018-08-13T11:06:31.242Z,0.40
2018-08-13T11:09:01.457Z,0.40
2018-08-13T11:11:31.726Z,0.40
2018-08-13T11:14:01.905Z,0.50
2018-08-13T11:16:32.256Z,0.50
2018-08-13T11:19:02.707Z,0.30
2018-08-13T11:21:33.251Z,0.50
2018-08-13T11:24:03.588Z,0.50
2018-08-13T11:26:33.878Z,0.33
2018-08-13T11:29:04.152Z,0.50
2018-08-13T11:31:34.395Z,0.40
2018-08-13T11:34:04.588Z,0.50
2018-08-13T11:36:34.813Z,0.57
2018-08-13T11:39:08.483Z,0.40
2018-08-13T11:41:38.896Z,0.40
2018-08-13T11:44:09.259Z,0.40
2018-08-13T11:46:39.621Z,0.60
2018-08-13T11:49:09.877Z,0.50
2018-08-13T11:51:40.194Z,0.40
2018-08-13T11:54:10.470Z,0.50
2018-08-13T11:56:40.874Z,0.30
2018-08-13T11:59:11.148Z,0.37
2018-08-13T12:01:42.064Z,0.30
2018-08-13T12:04:12.349Z,0.30
2018-08-13T12:06:42.684Z,0.43
2018-08-13T12:09:13.996Z,0.40
2018-08-13T12:11:44.241Z,0.40
2018-08-13T12:14:14.519Z,0.33
2018-08-13T12:16:44.764Z,0.20
2018-08-13T12:19:15.104Z,0.33
2018-08-13T12:21:45.421Z,0.30
2018-08-13T12:24:15.718Z,0.33
2018-08-13T12:26:45.957Z,0.40
2018-08-13T12:29:16.300Z,0.30
2018-08-13T12:31:46.524Z,0.40
2018-08-13T12:34:16.836Z,0.40
2018-08-13T12:36:47.081Z,0.30
2018-08-13T12:39:17.307Z,0.30
2018-08-13T12:41:47.545Z,0.40
2018-08-13T12:44:17.829Z,0.30
2018-08-13T12:46:48.100Z,0.30
2018-08-13T12:49:18.423Z,0.47
2018-08-13T12:51:48.614Z,0.43
2018-08-13T12:54:18.897Z,0.30
2018-08-13T12:56:49.164Z,0.20
2018-08-13T12:59:19.463Z,0.30
2018-08-13T13:01:49.771Z,0.33
2018-08-13T13:04:20.068Z,0.40
2018-08-13T13:06:50.288Z,0.60
2018-08-13T13:09:20.591Z,0.40
2018-08-13T13:11:50.871Z,0.40
2018-08-13T13:14:21.109Z,0.60
2018-08-13T13:16:51.356Z,0.40
2018-08-13T13:19:21.555Z,0.40
2018-08-13T13:21:51.806Z,0.70
2018-08-13T13:24:22.074Z,0.60
2018-08-13T13:26:52.350Z,0.53
2018-08-13T13:29:22.641Z,0.70
2018-08-13T13:31:52.846Z,0.50
2018-08-13T13:34:23.080Z,0.50
2018-08-13T13:36:53.355Z,0.50
2018-08-13T13:39:23.714Z,0.50
2018-08-13T13:41:53.936Z,0.70
2018-08-13T13:44:24.226Z,0.70
2018-08-13T13:46:54.579Z,0.50
2018-08-13T13:49:24.983Z,0.80
2018-08-13T13:51:55.374Z,0.60
2018-08-13T13:54:25.585Z,0.67
2018-08-13T13:56:55.836Z,0.60
2018-08-13T13:59:26.082Z,0.67
2018-08-13T14:01:56.378Z,0.60
2018-08-13T14:04:27.554Z,0.60
2018-08-13T14:06:57.931Z,0.50
2018-08-13T14:09:28.237Z,0.47
2018-08-13T14:11:58.461Z,0.50
2018-08-13T14:14:28.665Z,0.60
2018-08-13T14:16:59.008Z,0.40
2018-08-13T14:19:29.241Z,0.47
2018-08-13T14:21:59.626Z,0.60
2018-08-13T14:24:29.901Z,0.60
2018-08-13T14:27:00.167Z,0.60
2018-08-13T14:29:30.394Z,0.50
2018-08-13T14:32:00.681Z,0.60
2018-08-13T14:34:30.945Z,0.67
2018-08-13T14:37:01.203Z,0.57
2018-08-13T14:39:31.541Z,0.40
2018-08-13T14:42:01.746Z,0.40
2018-08-13T14:44:31.957Z,0.53
2018-08-13T14:47:02.258Z,0.50
2018-08-13T14:49:32.545Z,0.53
2018-08-13T14:52:03.054Z,0.43
2018-08-13T14:54:33.344Z,0.77
2018-08-13T14:57:03.628Z,0.40
2018-08-13T14:59:34.032Z,0.50
2018-08-13T15:02:04.355Z,0.50
2018-08-13T15:04:34.526Z,0.43
2018-08-13T15:07:04.847Z,0.63
2018-08-13T15:09:35.149Z,0.60
2018-08-13T15:12:05.409Z,0.50
2018-08-13T15:14:35.709Z,0.70
2018-08-13T15:17:06.132Z,0.40
2018-08-13T15:19:36.416Z,0.60
2018-08-13T15:22:06.803Z,0.50
2018-08-13T15:24:37.994Z,0.60
2018-08-13T15:27:08.236Z,0.60
2018-08-13T15:29:38.502Z,0.63
2018-08-13T15:32:08.701Z,0.60
2018-08-13T15:34:39.235Z,0.80
2018-08-13T15:37:09.421Z,0.70
2018-08-13T15:39:39.564Z,0.50
2018-08-13T15:42:09.905Z,0.57
2018-08-13T15:44:40.065Z,0.80
2018-08-13T15:47:10.329Z,0.60
2018-08-13T15:49:40.561Z,0.70
2018-08-13T15:52:11.157Z,0.70
2018-08-13T15:54:41.419Z,0.60
2018-08-13T15:57:11.638Z,0.60
2018-08-13T15:59:42.018Z,0.60
2018-08-13T16:02:12.340Z,0.60
2018-08-13T16:04:42.581Z,0.43
2018-08-13T16:07:13.260Z,0.67
2018-08-13T16:09:43.480Z,0.70
2018-08-13T16:12:13.764Z,0.67
2018-08-13T16:14:44.182Z,0.70
2018-08-13T16:17:14.504Z,0.57
2018-08-13T16:19:44.732Z,0.70
2018-08-13T16:22:14.905Z,0.57
2018-08-13T16:24:45.305Z,0.83
2018-08-13T16:27:15.646Z,0.67
2018-08-13T16:29:45.919Z,0.60
2018-08-13T16:32:16.117Z,0.50
2018-08-13T16:34:46.443Z,0.63
2018-08-13T16:37:16.713Z,0.50
2018-08-13T16:39:47.006Z,0.60
2018-08-13T16:42:17.285Z,0.60
2018-08-13T16:44:47.572Z,0.40
2018-08-13T16:47:17.888Z,0.57
2018-08-13T16:49:48.120Z,0.60
2018-08-13T16:52:18.376Z,0.67
2018-08-13T16:54:48.633Z,0.50
2018-08-13T16:57:18.899Z,0.50
2018-08-13T16:59:49.194Z,0.50
2018-08-13T17:02:19.431Z,0.60
2018-08-13T17:04:49.748Z,0.50
2018-08-13T17:07:19.961Z,0.43
2018-08-13T17:09:50.284Z,0.50
2018-08-13T17:12:20.464Z,0.33
2018-08-13T17:14:50.792Z,0.50
2018-08-13T17:17:21.008Z,0.70
2018-08-13T17:19:51.209Z,0.50
2018-08-13T17:22:21.667Z,0.50
2018-08-13T17:24:51.883Z,0.50
2018-08-13T17:27:22.153Z,0.30
2018-08-13T17:29:52.376Z,0.37
2018-08-13T17:32:22.720Z,0.60
2018-08-13T17:34:52.910Z,0.50
2018-08-13T17:37:23.077Z,0.50
2018-08-13T17:39:53.281Z,0.57
2018-08-13T17:42:23.556Z,0.50
2018-08-13T17:44:53.692Z,0.50
2018-08-13T17:47:23.892Z,0.60
2018-08-13T17:49:54.109Z,0.50
2018-08-13T17:52:24.356Z,0.50
2018-08-13T17:54:54.560Z,0.50
2018-08-13T17:57:24.768Z,0.50
2018-08-13T17:59:54.921Z,0.50
2018-08-13T18:02:25.252Z,0.60
2018-08-13T18:04:55.344Z,0.70
2018-08-13T18:07:25.669Z,0.80
2018-08-13T18:09:55.838Z,0.70
2018-08-13T18:12:26.008Z,0.60
2018-08-13T18:14:56.251Z,0.53
2018-08-13T18:17:26.416Z,0.53
2018-08-13T18:19:56.608Z,0.83
2018-08-13T18:22:26.891Z,0.60
2018-08-13T18:24:57.080Z,0.60
2018-08-13T18:27:27.387Z,0.50
2018-08-13T18:29:57.892Z,0.40
2018-08-13T18:32:28.168Z,0.70
2018-08-13T18:34:58.653Z,0.60
2018-08-13T18:37:28.980Z,1.00
2018-08-13T18:39:59.369Z,0.70
2018-08-13T18:42:29.684Z,0.70
2018-08-13T18:44:59.880Z,0.43
2018-08-13T18:47:30.104Z,0.70
2018-08-13T18:50:00.328Z,0.90
2018-08-13T18:52:30.640Z,0.70
2018-08-13T18:55:00.945Z,0.80
2018-08-13T18:57:31.211Z,0.70
2018-08-13T19:00:01.438Z,0.70
2018-08-13T19:02:31.808Z,0.73
2018-08-13T19:05:01.963Z,0.60
2018-08-13T19:07:32.240Z,0.70
2018-08-13T19:10:02.468Z,0.50
2018-08-13T19:12:32.657Z,1.00
2018-08-13T19:15:02.857Z,0.70
2018-08-13T19:17:33.088Z,0.57
2018-08-13T19:20:03.328Z,0.93
2018-08-13T19:22:33.565Z,0.53
2018-08-13T19:25:03.833Z,0.50
2018-08-13T19:27:34.088Z,0.53
2018-08-13T19:30:04.869Z,0.50
2018-08-13T19:32:35.128Z,0.50
2018-08-13T19:35:06.281Z,0.47
2018-08-13T19:37:36.380Z,0.77
2018-08-13T19:40:11.185Z,0.50
2018-08-13T19:42:41.448Z,0.50
2018-08-13T19:45:13.029Z,0.60
2018-08-13T19:47:43.420Z,0.80
2018-08-13T19:50:13.977Z,0.80
2018-08-13T19:52:45.236Z,0.50
2018-08-13T19:55:15.763Z,0.50
2018-08-13T19:57:46.004Z,0.40
2018-08-13T20:00:26.323Z,0.70
2018-08-13T20:02:56.589Z,0.70
2018-08-13T20:05:27.896Z,0.50
2018-08-13T20:07:58.047Z,0.60
2018-08-13T20:10:28.168Z,0.47
2018-08-13T20:12:58.336Z,0.80
2018-08-13T20:15:28.512Z,0.50
2018-08-13T20:17:58.692Z,0.60
2018-08-13T20:20:28.967Z,0.60
2018-08-13T20:22:59.251Z,0.50
2018-08-13T20:25:29.412Z,0.60
2018-08-13T20:27:59.972Z,0.40
2018-08-13T20:30:30.480Z,0.70
2018-08-13T20:33:00.724Z,0.80
2018-08-13T20:35:30.913Z,0.70
2018-08-13T20:38:01.184Z,0.80
2018-08-13T20:40:31.408Z,0.60
2018-08-13T20:43:01.570Z,0.57
2018-08-13T20:45:31.720Z,0.50
2018-08-13T20:48:01.892Z,0.60
2018-08-13T20:50:32.075Z,0.60
2018-08-13T20:53:02.256Z,0.70
2018-08-13T20:55:32.401Z,0.80
2018-08-13T20:58:02.569Z,0.50
2018-08-13T21:00:33.005Z,0.70
2018-08-13T21:03:03.160Z,0.53
2018-08-13T21:05:33.377Z,0.60
2018-08-13T21:08:03.629Z,0.70
2018-08-13T21:10:33.808Z,0.80
2018-08-13T21:13:04.056Z,0.40
2018-08-13T21:15:34.200Z,0.43
2018-08-13T21:18:04.782Z,1.00
2018-08-13T21:20:34.927Z,0.63
2018-08-13T21:23:05.092Z,0.70
2018-08-13T21:25:35.305Z,1.20
2018-08-13T21:28:05.435Z,0.70
2018-08-13T21:30:35.612Z,0.50
2018-08-13T21:33:05.850Z,0.70
2018-08-13T21:35:36.043Z,0.60
2018-08-13T21:38:06.295Z,0.60
2018-08-13T21:40:36.458Z,0.90
2018-08-13T21:43:06.632Z,0.80
2018-08-13T21:45:36.788Z,0.80
2018-08-13T21:48:07.032Z,0.70
2018-08-13T21:50:37.132Z,0.70
2018-08-13T21:53:07.642Z,0.87
2018-08-13T21:55:37.784Z,0.83
2018-08-13T21:58:07.992Z,1.00
2018-08-13T22:00:43.496Z,0.80
2018-08-13T22:03:13.656Z,0.70
2018-08-13T22:05:43.833Z,0.80
2018-08-13T22:08:14.031Z,0.70
2018-08-13T22:10:44.264Z,0.80
2018-08-13T22:13:14.336Z,0.87
2018-08-13T22:15:44.570Z,0.80
2018-08-13T22:18:14.752Z,0.60
2018-08-13T22:20:44.955Z,0.80
2018-08-13T22:23:15.181Z,0.73
2018-08-13T22:25:46.428Z,0.80
2018-08-13T22:28:18.122Z,1.03
2018-08-13T22:30:49.248Z,1.33
2018-08-13T22:33:19.463Z,1.20
2018-08-13T22:35:49.631Z,1.30
2018-08-13T22:38:19.811Z,1.30
2018-08-13T22:40:49.939Z,0.90
2018-08-13T22:43:20.168Z,1.10
2018-08-13T22:45:50.296Z,0.90
2018-08-13T22:48:20.420Z,1.10
2018-08-13T22:50:50.544Z,0.90
2018-08-13T22:53:20.684Z,1.00
2018-08-13T22:55:50.816Z,1.10
2018-08-13T22:58:20.957Z,1.13
2018-08-13T23:00:51.282Z,1.10
2018-08-13T23:03:21.286Z,1.10
2018-08-13T23:05:51.578Z,1.17
2018-08-13T23:08:21.697Z,1.00
2018-08-13T23:10:51.919Z,0.90
2018-08-13T23:13:22.046Z,0.90
2018-08-13T23:15:52.253Z,1.30
2018-08-13T23:18:22.360Z,0.80
2018-08-13T23:20:52.568Z,0.73
2018-08-13T23:23:22.743Z,0.80
2018-08-13T23:25:52.972Z,0.80
2018-08-13T23:28:23.132Z,1.13
2018-08-13T23:30:53.332Z,0.80
2018-08-13T23:33:23.555Z,1.10
2018-08-13T23:35:53.694Z,0.80
2018-08-13T23:38:23.808Z,0.80
2018-08-13T23:40:54.008Z,0.70
2018-08-13T23:43:24.140Z,0.90
2018-08-13T23:45:54.464Z,0.80
2018-08-13T23:48:24.696Z,1.03
2018-08-13T23:50:54.900Z,0.90
2018-08-13T23:53:25.068Z,0.90
2018-08-13T23:55:55.183Z,1.30
2018-08-13T23:58:25.384Z,0.70
